aviador You're here:

UBBQ Decoded Metar

in
Report Time2018-01-21 18:00:00
UTC Time2018-01-21 18:30:40
Flight Rules lifr LIFR
Wind130° at 03 kt
W.Decomp.*RWY 16: 2.6 kt HW 1.5 kt LCW
W.Rank130° ranks 5
Current wind is below 130° avg. (5.0)
Visibility0200 m
Phenomena:Fog
Clouds:N/A
Ceiling100 ft
Temp01°C
Dew Point01°C (100% RH)
AAT-1.9°C
QNH1016 hPa
Raw Report
METAR UBBQ 211800Z 13003KT 0200 R34/0200 FG VV001 01/01 Q1016
R34/////// NOSIG RMK MT OBSC=

Extra information for UBBQ:More info

Social comments